EDDP/LEJ METAR and TAF weather

Enter ICAO airport designator
Station Type Date Time Source
EDDP METAR 2020/04/06 08:50 UTC NOAA

EDDP 060850Z 16007KT 120V180 CAVOK 13/M00 Q1023 NOSIG


Station Type Date Time Source
EDDP Decoded METAR 2020/04/06 08:50 UTC NOAA

Leipzig-Schkeuditz, Germany (EDDP) 51-25N 012-14E 149M
Apr 06, 2020 - 04:50 AM EDT / 2020.04.06 0850 UTC
Wind: from the SSE (160 degrees) at 8 MPH (7 KT) (direction variable):0
Visibility: greater than 7 mile(s):0
Temperature: 55 F (13 C)
Dew Point: 32 F (0 C)
Relative Humidity: 40%
Pressure (altimeter): 30.21 in. Hg (1023 hPa)
ob: EDDP 060850Z 16007KT 120V180 CAVOK 13/M00 Q1023 NOSIG
cycle: 9

Station Type Date Time Source
EDDP TAF 2020/04/06 06:27 UTC NOAA

TAF EDDP 060500Z 0606/0706 15008KT CAVOK
BECMG 0616/0618 21006KT

Example: see airport list